Wide Ruins, Arizona
Current Conditions -  °F | °C
As of 11:54 AM on Sunday 23 Nov 2014 (Local Time) from KSJN Reporting Station
Clear Clear  
Wind Chill: 39°   Ceiling: Unl
Heat Index: 47°   Visibility: 10mi
Dew Point: -1°   Wind: 23mph
Humidity: 14%   Direction: 300°WNW
Pressure: 30.04"   Gusts: 38mph
Location:  34.9472°N, 109.473°W
Report Text: KSJN 231854Z AUTO 30020G33KT 10SM CLR 08/M18 A3004 RMK AO2 PK WND 28038/1828 SLP135 T00831183
Loading
Personal Weather Stations






























Interactive Weather Map New forecast layout! Learn more

10-Day Weather Forecast

Advertisements
Track Severe Weather on mobile